createdAt,value
2019-01-05T00:01:52.770Z,0.80
2019-01-05T00:08:24.428Z,0.80
2019-01-05T00:10:55.828Z,0.90
2019-01-05T00:13:36.387Z,0.90
2019-01-05T00:20:08.908Z,0.90
2019-01-05T00:26:59.178Z,0.90
2019-01-05T00:33:49.196Z,1.00
2019-01-05T00:37:13.671Z,1.00
2019-01-05T00:44:02.469Z,1.00
2019-01-05T00:50:35.739Z,1.00
2019-01-05T00:54:00.067Z,1.00
2019-01-05T01:00:35.652Z,1.10
2019-01-05T01:07:19.739Z,1.00
2019-01-05T01:09:54.284Z,1.10
2019-01-05T01:16:38.617Z,1.10
2019-01-05T01:23:12.748Z,1.10
2019-01-05T01:29:51.680Z,1.10
2019-01-05T01:36:24.089Z,1.10
2019-01-05T01:39:48.489Z,1.10
2019-01-05T01:46:21.738Z,1.10
2019-01-05T01:52:59.186Z,1.10
2019-01-05T01:55:45.623Z,1.10
2019-01-05T02:02:19.760Z,1.20
2019-01-05T02:08:53.622Z,1.10
2019-01-05T02:15:31.514Z,1.10
2019-01-05T02:22:30.208Z,1.20
2019-01-05T02:29:37.894Z,1.20
2019-01-05T02:36:42.250Z,1.20
2019-01-05T02:43:41.962Z,1.20
2019-01-05T02:46:25.426Z,1.20
2019-01-05T02:53:23.815Z,1.20
2019-01-05T03:00:27.485Z,1.10
2019-01-05T03:03:34.908Z,1.20
2019-01-05T03:10:36.048Z,1.20
2019-01-05T03:17:35.517Z,1.20
2019-01-05T03:24:40.200Z,1.20
2019-01-05T03:31:55.737Z,1.20
2019-01-05T03:35:20.323Z,1.20
2019-01-05T03:42:18.085Z,1.20
2019-01-05T03:49:43.746Z,1.20
2019-01-05T03:56:37.309Z,1.20
2019-01-05T03:59:42.887Z,1.20
2019-01-05T04:06:27.478Z,1.20
2019-01-05T04:13:25.871Z,1.20
2019-01-05T04:20:33.653Z,1.20
2019-01-05T04:23:33.116Z,1.20
2019-01-05T04:30:17.539Z,1.20
2019-01-05T04:37:15.264Z,1.10
2019-01-05T04:40:39.389Z,1.20
2019-01-05T04:47:30.897Z,1.20
2019-01-05T04:50:36.519Z,1.20
2019-01-05T04:57:39.739Z,1.10
2019-01-05T05:04:39.955Z,1.10
2019-01-05T05:11:50.199Z,1.10
2019-01-05T05:14:40.358Z,1.10
2019-01-05T05:22:09.063Z,1.20
2019-01-05T05:33:07.023Z,1.10
2019-01-05T05:39:46.275Z,1.10
2019-01-05T05:46:58.216Z,1.10
2019-01-05T05:49:52.141Z,1.20
2019-01-05T05:56:49.009Z,1.10
2019-01-05T06:04:13.953Z,1.20
2019-01-05T06:11:07.925Z,1.20
2019-01-05T06:17:55.127Z,1.20
2019-01-05T06:24:54.677Z,1.20
2019-01-05T06:32:02.054Z,1.10
2019-01-05T06:38:59.699Z,0.90
2019-01-05T06:46:06.538Z,0.70
2019-01-05T06:49:14.032Z,0.60
2019-01-05T06:51:57.093Z,0.60
2019-01-05T06:58:40.397Z,0.40
2019-01-05T07:02:04.853Z,0.30
2019-01-05T07:09:25.348Z,0.30
2019-01-05T07:16:33.683Z,0.30
2019-01-05T07:19:42.851Z,0.30
2019-01-05T07:22:39.425Z,0.30
2019-01-05T07:26:03.786Z,0.30
2019-01-05T07:32:55.837Z,0.20
2019-01-05T07:40:09.383Z,0.10
2019-01-05T07:47:16.615Z,0.10
2019-01-05T07:54:16.942Z,0.10
2019-01-05T07:57:41.133Z,0.20
2019-01-05T08:04:51.829Z,0.20
2019-01-05T08:11:29.801Z,0.20
2019-01-05T08:14:54.158Z,0.20
2019-01-05T08:22:18.811Z,0.30
2019-01-05T08:29:06.572Z,0.40
2019-01-05T08:35:54.301Z,0.30
2019-01-05T08:38:37.553Z,0.40
2019-01-05T08:45:45.097Z,0.50
2019-01-05T08:48:24.815Z,0.40
2019-01-05T08:51:49.498Z,0.40
2019-01-05T08:58:36.369Z,0.40
2019-01-05T09:05:43.311Z,0.30
2019-01-05T09:12:52.025Z,0.20
2019-01-05T09:19:39.542Z,0.20
2019-01-05T09:22:47.215Z,0.20
2019-01-05T09:29:57.563Z,0.20
2019-01-05T09:37:01.961Z,0.30
2019-01-05T09:39:57.561Z,0.40
2019-01-05T09:47:01.196Z,0.40
2019-01-05T09:53:45.451Z,0.60
2019-01-05T10:00:30.467Z,0.70
2019-01-05T10:07:37.388Z,0.70
2019-01-05T10:14:21.920Z,0.80
2019-01-05T10:17:21.619Z,0.70
2019-01-05T10:24:27.271Z,0.80
2019-01-05T10:31:20.844Z,0.80
2019-01-05T10:38:25.351Z,0.90
2019-01-05T10:41:49.749Z,0.90
2019-01-05T10:48:33.338Z,0.80
2019-01-05T10:55:35.911Z,0.80
2019-01-05T10:59:00.355Z,0.70
2019-01-05T11:06:00.890Z,0.80
2019-01-05T11:13:05.824Z,0.90
2019-01-05T11:15:43.011Z,0.90
2019-01-05T11:22:47.297Z,1.00
2019-01-05T11:25:47.681Z,1.00
2019-01-05T11:33:08.486Z,1.10
2019-01-05T11:36:32.835Z,1.20
2019-01-05T11:43:23.457Z,1.30
2019-01-05T11:46:47.758Z,1.40
2019-01-05T11:53:31.847Z,1.60
2019-01-05T12:00:28.041Z,1.60
2019-01-05T12:03:20.658Z,1.60
2019-01-05T12:10:24.899Z,1.60
2019-01-05T12:17:18.367Z,1.60
2019-01-05T12:24:25.634Z,1.80
2019-01-05T12:31:34.146Z,1.70
2019-01-05T12:34:35.500Z,1.70
2019-01-05T12:41:54.603Z,1.80
2019-01-05T12:48:58.480Z,1.90
2019-01-05T12:52:23.151Z,1.90
2019-01-05T12:59:17.053Z,1.80
2019-01-05T13:06:07.487Z,1.70
2019-01-05T13:13:07.166Z,1.70
2019-01-05T13:16:31.894Z,1.60
2019-01-05T13:23:39.165Z,1.40
2019-01-05T13:26:34.625Z,1.40
2019-01-05T13:33:38.760Z,1.30
2019-01-05T13:36:25.330Z,1.40
2019-01-05T13:39:49.881Z,1.40
2019-01-05T13:47:05.835Z,1.30
2019-01-05T13:50:22.376Z,1.30
2019-01-05T13:53:47.092Z,1.30
2019-01-05T14:00:19.618Z,1.40
2019-01-05T14:03:43.939Z,1.40
2019-01-05T14:10:19.805Z,1.40
2019-01-05T14:17:13.460Z,1.30
2019-01-05T14:24:04.138Z,1.40
2019-01-05T14:26:51.833Z,1.40
2019-01-05T14:33:36.526Z,1.50
2019-01-05T14:40:15.843Z,1.40
2019-01-05T14:46:48.420Z,1.50
2019-01-05T14:50:13.216Z,1.40
2019-01-05T14:56:48.834Z,1.40
2019-01-05T15:03:24.139Z,1.50
2019-01-05T15:05:58.693Z,1.50
2019-01-05T15:12:31.382Z,1.50
2019-01-05T15:19:06.389Z,1.50
2019-01-05T15:21:37.913Z,1.50
2019-01-05T15:25:02.099Z,1.50
2019-01-05T15:27:39.383Z,1.50
2019-01-05T15:34:28.146Z,1.50
2019-01-05T15:41:17.395Z,1.50
2019-01-05T15:48:08.418Z,1.60
2019-01-05T15:50:42.790Z,1.50
2019-01-05T15:53:29.312Z,1.60
2019-01-05T15:56:16.904Z,1.50
2019-01-05T15:59:41.437Z,1.60
2019-01-05T16:06:28.983Z,1.60
2019-01-05T16:09:15.761Z,1.70
2019-01-05T16:12:20.984Z,1.70
2019-01-05T16:18:55.823Z,1.70
2019-01-05T16:22:20.021Z,1.70
2019-01-05T16:29:08.079Z,1.70
2019-01-05T16:35:56.327Z,1.70
2019-01-05T16:39:20.725Z,1.60
2019-01-05T16:45:55.951Z,1.70
2019-01-05T16:52:40.286Z,1.70
2019-01-05T16:56:05.194Z,1.70
2019-01-05T17:02:53.129Z,1.70
2019-01-05T17:05:39.568Z,1.70
2019-01-05T17:09:03.933Z,1.70
2019-01-05T17:15:39.010Z,1.70
2019-01-05T17:19:03.716Z,1.80
2019-01-05T17:25:52.175Z,1.70
2019-01-05T17:32:40.545Z,1.70
2019-01-05T17:39:13.201Z,1.70
2019-01-05T17:41:44.801Z,1.70
2019-01-05T17:48:19.839Z,1.70
2019-01-05T17:54:58.221Z,1.70
2019-01-05T18:01:47.076Z,1.70
2019-01-05T18:05:11.271Z,1.70
2019-01-05T18:12:00.071Z,1.70
2019-01-05T18:18:44.714Z,1.70
2019-01-05T18:25:22.691Z,1.70
2019-01-05T18:28:47.158Z,1.70
2019-01-05T18:35:35.901Z,1.70
2019-01-05T18:42:24.363Z,1.70
2019-01-05T18:45:44.429Z,1.70
2019-01-05T18:52:25.548Z,1.80
2019-01-05T18:59:16.127Z,1.80
2019-01-05T19:02:40.863Z,1.80
2019-01-05T19:09:15.818Z,1.80
2019-01-05T19:15:57.127Z,1.80
2019-01-05T19:19:21.791Z,1.80
2019-01-05T19:26:06.548Z,1.80
2019-01-05T19:32:39.053Z,1.80
2019-01-05T19:39:14.930Z,1.80
2019-01-05T19:42:39.319Z,1.90
2019-01-05T19:49:30.311Z,1.90
2019-01-05T19:56:11.749Z,1.80
2019-01-05T19:59:36.389Z,1.90
2019-01-05T20:06:08.831Z,1.80
2019-01-05T20:08:58.735Z,1.80
2019-01-05T20:11:30.384Z,1.80
2019-01-05T20:14:18.401Z,1.70
2019-01-05T20:20:50.244Z,1.70
2019-01-05T20:27:22.603Z,1.70
2019-01-05T20:34:03.975Z,1.80
2019-01-05T20:40:40.240Z,1.80
2019-01-05T20:47:29.483Z,1.70
2019-01-05T20:54:10.827Z,1.70
2019-01-05T21:01:00.554Z,1.80
2019-01-05T21:07:37.628Z,1.80
2019-01-05T21:11:02.673Z,1.80
2019-01-05T21:17:39.826Z,1.80
2019-01-05T21:21:04.898Z,1.80
2019-01-05T21:27:54.481Z,1.90
2019-01-05T21:34:40.994Z,1.90
2019-01-05T21:41:34.908Z,1.90
2019-01-05T22:02:04.716Z,2.00
2019-01-05T22:12:56.404Z,2.00
2019-01-05T22:20:21.092Z,1.90
2019-01-05T22:31:02.365Z,2.00
2019-01-05T22:37:40.168Z,2.00
2019-01-05T22:48:22.174Z,2.00
2019-01-05T22:51:55.951Z,2.00
2019-01-05T23:05:24.231Z,2.00
2019-01-05T23:12:04.976Z,2.00
2019-01-05T23:15:12.698Z,2.00
2019-01-05T23:22:00.582Z,2.00
